sensor_id;sensor_type;location;lat;lon;timestamp;pressure;altitude;pressure_sealevel;temperature;humidity
58973;BME280;44750;52.040;7.472;2023-08-12T00:02:51;101439.81;;;22.59;nan
58973;BME280;44750;52.040;7.472;2023-08-12T00:07:51;101463.22;;;22.57;nan
58973;BME280;44750;52.040;7.472;2023-08-12T00:12:51;101473.63;;;22.41;nan
58973;BME280;44750;52.040;7.472;2023-08-12T00:17:52;101509.03;;;22.44;nan
58973;BME280;44750;52.040;7.472;2023-08-12T00:22:52;101526.84;;;22.55;nan
58973;BME280;44750;52.040;7.472;2023-08-12T00:27:53;101513.72;;;22.57;nan
58973;BME280;44750;52.040;7.472;2023-08-12T00:32:53;101505.19;;;22.65;nan
58973;BME280;44750;52.040;7.472;2023-08-12T00:37:53;101509.22;;;22.63;nan
58973;BME280;44750;52.040;7.472;2023-08-12T00:42:53;101491.63;;;22.50;nan
58973;BME280;44750;52.040;7.472;2023-08-12T00:47:54;101479.31;;;22.33;nan
58973;BME280;44750;52.040;7.472;2023-08-12T00:52:54;101457.44;;;21.98;nan
58973;BME280;44750;52.040;7.472;2023-08-12T00:57:54;101472.28;;;21.83;nan
58973;BME280;44750;52.040;7.472;2023-08-12T01:02:56;101509.81;;;21.98;nan
58973;BME280;44750;52.040;7.472;2023-08-12T01:07:56;101545.28;;;22.14;nan
58973;BME280;44750;52.040;7.472;2023-08-12T01:13:21;101549.94;;;22.14;nan
58973;BME280;44750;52.040;7.472;2023-08-12T01:18:25;101550.38;;;22.17;nan
58973;BME280;44750;52.040;7.472;2023-08-12T01:23:26;101538.06;;;22.13;nan
58973;BME280;44750;52.040;7.472;2023-08-12T01:28:27;101559.09;;;22.28;nan
58973;BME280;44750;52.040;7.472;2023-08-12T01:34:10;101564.38;;;22.29;nan
58973;BME280;44750;52.040;7.472;2023-08-12T01:39:02;101555.28;;;22.29;nan
58973;BME280;44750;52.040;7.472;2023-08-12T01:44:03;101560.81;;;22.35;nan
58973;BME280;44750;52.040;7.472;2023-08-12T01:49:04;101531.94;;;22.31;nan
58973;BME280;44750;52.040;7.472;2023-08-12T01:54:04;101530.84;;;22.32;nan
58973;BME280;44750;52.040;7.472;2023-08-12T01:59:04;101503.72;;;22.23;nan
58973;BME280;44750;52.040;7.472;2023-08-12T02:04:05;101520.91;;;22.25;nan
58973;BME280;44750;52.040;7.472;2023-08-12T02:09:05;101515.56;;;22.30;nan
58973;BME280;44750;52.040;7.472;2023-08-12T02:14:05;101516.69;;;22.35;nan
58973;BME280;44750;52.040;7.472;2023-08-12T02:19:08;101507.13;;;22.31;nan
58973;BME280;44750;52.040;7.472;2023-08-12T02:24:09;101479.31;;;22.13;nan
58973;BME280;44750;52.040;7.472;2023-08-12T02:29:09;101467.84;;;21.89;nan
58973;BME280;44750;52.040;7.472;2023-08-12T02:34:09;101486.25;;;21.82;nan
58973;BME280;44750;52.040;7.472;2023-08-12T02:39:10;101484.75;;;21.66;nan
58973;BME280;44750;52.040;7.472;2023-08-12T02:44:10;101494.28;;;21.57;nan
58973;BME280;44750;52.040;7.472;2023-08-12T02:49:10;101495.88;;;21.44;nan
58973;BME280;44750;52.040;7.472;2023-08-12T02:54:11;101518.78;;;21.45;nan
58973;BME280;44750;52.040;7.472;2023-08-12T02:59:11;101520.22;;;21.34;nan
58973;BME280;44750;52.040;7.472;2023-08-12T03:04:11;101534.97;;;21.19;nan
58973;BME280;44750;52.040;7.472;2023-08-12T03:09:11;101537.00;;;21.04;nan
58973;BME280;44750;52.040;7.472;2023-08-12T03:14:12;101568.59;;;21.15;nan
58973;BME280;44750;52.040;7.472;2023-08-12T03:19:12;101588.66;;;21.02;nan
58973;BME280;44750;52.040;7.472;2023-08-12T03:24:12;101601.75;;;21.00;nan
58973;BME280;44750;52.040;7.472;2023-08-12T03:29:12;101612.94;;;20.92;nan
58973;BME280;44750;52.040;7.472;2023-08-12T03:34:14;101622.88;;;20.93;nan
58973;BME280;44750;52.040;7.472;2023-08-12T03:39:14;101620.09;;;20.86;nan
58973;BME280;44750;52.040;7.472;2023-08-12T03:44:14;101644.50;;;20.96;nan
58973;BME280;44750;52.040;7.472;2023-08-12T03:49:15;101653.28;;;20.84;nan
58973;BME280;44750;52.040;7.472;2023-08-12T03:54:15;101682.50;;;20.85;nan
58973;BME280;44750;52.040;7.472;2023-08-12T03:59:15;101694.75;;;20.83;nan
58973;BME280;44750;52.040;7.472;2023-08-12T04:04:15;101729.28;;;20.85;nan
58973;BME280;44750;52.040;7.472;2023-08-12T04:09:16;101755.22;;;20.98;nan
58973;BME280;44750;52.040;7.472;2023-08-12T04:14:16;101753.53;;;20.97;nan
58973;BME280;44750;52.040;7.472;2023-08-12T04:19:16;101763.88;;;20.95;nan
58973;BME280;44750;52.040;7.472;2023-08-12T04:24:16;101780.00;;;20.98;nan
58973;BME280;44750;52.040;7.472;2023-08-12T04:29:17;101801.50;;;21.09;nan
58973;BME280;44750;52.040;7.472;2023-08-12T04:34:17;101813.06;;;21.19;nan
58973;BME280;44750;52.040;7.472;2023-08-12T04:39:17;101803.72;;;21.20;nan
58973;BME280;44750;52.040;7.472;2023-08-12T04:44:17;101806.94;;;21.24;nan
58973;BME280;44750;52.040;7.472;2023-08-12T04:49:18;101801.13;;;21.34;nan
58973;BME280;44750;52.040;7.472;2023-08-12T04:54:18;101807.72;;;21.40;nan
58973;BME280;44750;52.040;7.472;2023-08-12T04:59:18;101802.03;;;21.41;nan
58973;BME280;44750;52.040;7.472;2023-08-12T05:09:20;101785.44;;;21.34;nan
58973;BME280;44750;52.040;7.472;2023-08-12T05:14:20;101769.81;;;21.42;nan
58973;BME280;44750;52.040;7.472;2023-08-12T05:19:20;101750.69;;;21.33;nan
58973;BME280;44750;52.040;7.472;2023-08-12T05:24:21;101747.28;;;21.31;nan
58973;BME280;44750;52.040;7.472;2023-08-12T05:29:21;101752.38;;;21.34;nan
58973;BME280;44750;52.040;7.472;2023-08-12T05:34:21;101759.19;;;21.38;nan
58973;BME280;44750;52.040;7.472;2023-08-12T05:39:22;101763.47;;;21.41;nan
58973;BME280;44750;52.040;7.472;2023-08-12T05:44:22;101755.19;;;21.41;nan
58973;BME280;44750;52.040;7.472;2023-08-12T05:49:22;101767.94;;;21.42;nan
58973;BME280;44750;52.040;7.472;2023-08-12T05:54:22;101775.00;;;21.51;nan
58973;BME280;44750;52.040;7.472;2023-08-12T05:59:22;101776.66;;;21.52;nan
58973;BME280;44750;52.040;7.472;2023-08-12T06:04:23;101765.22;;;21.49;nan
58973;BME280;44750;52.040;7.472;2023-08-12T06:09:23;101761.41;;;21.50;nan
58973;BME280;44750;52.040;7.472;2023-08-12T06:14:23;101766.13;;;21.56;nan
58973;BME280;44750;52.040;7.472;2023-08-12T06:19:23;101757.66;;;21.58;nan
58973;BME280;44750;52.040;7.472;2023-08-12T06:24:24;101754.06;;;21.57;nan
58973;BME280;44750;52.040;7.472;2023-08-12T06:29:24;101748.50;;;21.50;nan
58973;BME280;44750;52.040;7.472;2023-08-12T06:34:24;101760.69;;;21.63;nan
58973;BME280;44750;52.040;7.472;2023-08-12T06:39:24;101767.72;;;21.72;nan
58973;BME280;44750;52.040;7.472;2023-08-12T06:44:25;101751.88;;;21.74;nan
58973;BME280;44750;52.040;7.472;2023-08-12T06:49:25;101748.03;;;21.75;nan
58973;BME280;44750;52.040;7.472;2023-08-12T06:54:25;101745.94;;;21.77;nan
58973;BME280;44750;52.040;7.472;2023-08-12T06:59:25;101727.44;;;21.71;nan
58973;BME280;44750;52.040;7.472;2023-08-12T07:04:25;101723.41;;;21.67;nan
58973;BME280;44750;52.040;7.472;2023-08-12T07:09:26;101729.31;;;21.64;nan
58973;BME280;44750;52.040;7.472;2023-08-12T07:14:26;101743.31;;;21.62;nan
58973;BME280;44750;52.040;7.472;2023-08-12T07:19:26;101744.41;;;21.68;nan
58973;BME280;44750;52.040;7.472;2023-08-12T07:24:26;101737.38;;;21.65;nan
58973;BME280;44750;52.040;7.472;2023-08-12T07:29:27;101737.59;;;21.64;nan
58973;BME280;44750;52.040;7.472;2023-08-12T07:34:27;101751.63;;;21.69;nan
58973;BME280;44750;52.040;7.472;2023-08-12T07:39:27;101750.94;;;21.67;nan
58973;BME280;44750;52.040;7.472;2023-08-12T07:44:27;101766.53;;;21.81;nan
58973;BME280;44750;52.040;7.472;2023-08-12T07:49:28;101761.59;;;21.70;nan
58973;BME280;44750;52.040;7.472;2023-08-12T07:54:28;101762.44;;;21.70;nan
58973;BME280;44750;52.040;7.472;2023-08-12T07:59:28;101767.09;;;21.70;nan
58973;BME280;44750;52.040;7.472;2023-08-12T08:04:28;101767.09;;;21.70;nan
58973;BME280;44750;52.040;7.472;2023-08-12T08:09:29;101755.16;;;21.63;nan
58973;BME280;44750;52.040;7.472;2023-08-12T08:14:29;101746.13;;;21.47;nan
58973;BME280;44750;52.040;7.472;2023-08-12T08:19:29;101784.94;;;21.74;nan
58973;BME280;44750;52.040;7.472;2023-08-12T08:24:30;101775.59;;;21.75;nan
58973;BME280;44750;52.040;7.472;2023-08-12T08:29:30;101787.72;;;21.81;nan
58973;BME280;44750;52.040;7.472;2023-08-12T08:34:30;101772.28;;;21.86;nan
58973;BME280;44750;52.040;7.472;2023-08-12T08:39:31;101739.13;;;21.73;nan
58973;BME280;44750;52.040;7.472;2023-08-12T08:44:33;101741.94;;;21.80;nan
58973;BME280;44750;52.040;7.472;2023-08-12T08:49:34;101737.91;;;21.82;nan
58973;BME280;44750;52.040;7.472;2023-08-12T08:54:34;101724.72;;;21.78;nan
58973;BME280;44750;52.040;7.472;2023-08-12T08:59:35;101714.97;;;21.75;nan
58973;BME280;44750;52.040;7.472;2023-08-12T09:04:35;101722.63;;;21.80;nan
58973;BME280;44750;52.040;7.472;2023-08-12T09:09:36;101717.34;;;21.78;nan
58973;BME280;44750;52.040;7.472;2023-08-12T09:14:36;101705.41;;;21.71;nan
58973;BME280;44750;52.040;7.472;2023-08-12T09:19:37;101699.66;;;21.66;nan
58973;BME280;44750;52.040;7.472;2023-08-12T09:24:37;101713.88;;;21.69;nan
58973;BME280;44750;52.040;7.472;2023-08-12T09:29:38;101725.97;;;21.75;nan
58973;BME280;44750;52.040;7.472;2023-08-12T09:34:50;101712.16;;;21.68;nan
58973;BME280;44750;52.040;7.472;2023-08-12T09:39:51;101745.72;;;21.79;nan
58973;BME280;44750;52.040;7.472;2023-08-12T09:44:52;101762.06;;;21.80;nan
58973;BME280;44750;52.040;7.472;2023-08-12T09:49:52;101758.22;;;21.75;nan
58973;BME280;44750;52.040;7.472;2023-08-12T09:54:54;101775.84;;;21.80;nan
58973;BME280;44750;52.040;7.472;2023-08-12T09:59:56;101790.88;;;21.78;nan
58973;BME280;44750;52.040;7.472;2023-08-12T10:04:58;101780.69;;;21.71;nan
58973;BME280;44750;52.040;7.472;2023-08-12T10:09:59;101788.47;;;21.68;nan
58973;BME280;44750;52.040;7.472;2023-08-12T10:15:00;101806.97;;;21.74;nan
58973;BME280;44750;52.040;7.472;2023-08-12T10:20:03;101803.97;;;21.69;nan
58973;BME280;44750;52.040;7.472;2023-08-12T10:25:04;101803.88;;;21.56;nan
58973;BME280;44750;52.040;7.472;2023-08-12T10:30:06;101832.97;;;21.65;nan
58973;BME280;44750;52.040;7.472;2023-08-12T10:35:06;101846.59;;;21.73;nan
58973;BME280;44750;52.040;7.472;2023-08-12T10:40:20;101869.84;;;21.92;nan
58973;BME280;44750;52.040;7.472;2023-08-12T10:45:20;101869.47;;;21.95;nan
58973;BME280;44750;52.040;7.472;2023-08-12T10:50:22;101862.19;;;21.87;nan
58973;BME280;44750;52.040;7.472;2023-08-12T10:55:24;101885.25;;;22.08;nan
58973;BME280;44750;52.040;7.472;2023-08-12T11:00:26;101908.25;;;22.22;nan
58973;BME280;44750;52.040;7.472;2023-08-12T11:05:36;101891.34;;;22.32;nan
58973;BME280;44750;52.040;7.472;2023-08-12T11:10:37;101886.47;;;22.34;nan
58973;BME280;44750;52.040;7.472;2023-08-12T11:15:44;101871.06;;;22.40;nan
58973;BME280;44750;52.040;7.472;2023-08-12T11:20:45;101868.66;;;22.71;nan
58973;BME280;44750;52.040;7.472;2023-08-12T11:25:46;101849.63;;;22.97;nan
58973;BME280;44750;52.040;7.472;2023-08-12T11:30:46;101779.75;;;23.03;nan
58973;BME280;44750;52.040;7.472;2023-08-12T11:35:47;101739.66;;;23.34;nan
58973;BME280;44750;52.040;7.472;2023-08-12T11:40:47;101671.63;;;23.53;nan
58973;BME280;44750;52.040;7.472;2023-08-12T11:45:50;101560.53;;;23.11;nan
58973;BME280;44750;52.040;7.472;2023-08-12T11:50:50;101491.13;;;22.87;nan
58973;BME280;44750;52.040;7.472;2023-08-12T11:55:50;101482.66;;;22.88;nan
58973;BME280;44750;52.040;7.472;2023-08-12T12:00:51;101479.19;;;23.07;nan
58973;BME280;44750;52.040;7.472;2023-08-12T12:05:55;101495.22;;;23.50;nan
58973;BME280;44750;52.040;7.472;2023-08-12T12:10:56;101462.13;;;23.75;nan
58973;BME280;44750;52.040;7.472;2023-08-12T12:15:56;101395.41;;;23.97;nan
58973;BME280;44750;52.040;7.472;2023-08-12T12:20:58;101326.59;;;24.26;nan
58973;BME280;44750;52.040;7.472;2023-08-12T12:26:02;101245.06;;;24.47;nan
58973;BME280;44750;52.040;7.472;2023-08-12T12:31:03;101157.16;;;24.61;nan
58973;BME280;44750;52.040;7.472;2023-08-12T12:36:03;101110.06;;;24.79;nan
58973;BME280;44750;52.040;7.472;2023-08-12T12:41:04;101014.75;;;24.75;nan
58973;BME280;44750;52.040;7.472;2023-08-12T12:46:04;101012.13;;;25.45;nan
58973;BME280;44750;52.040;7.472;2023-08-12T12:51:04;100881.63;;;25.46;nan
58973;BME280;44750;52.040;7.472;2023-08-12T12:56:05;100753.88;;;25.14;nan
58973;BME280;44750;52.040;7.472;2023-08-12T13:01:05;100730.41;;;25.50;nan
58973;BME280;44750;52.040;7.472;2023-08-12T13:06:06;100696.50;;;26.22;nan
58973;BME280;44750;52.040;7.472;2023-08-12T13:11:06;100554.50;;;26.25;nan
58973;BME280;44750;52.040;7.472;2023-08-12T13:16:06;100460.88;;;26.42;nan
58973;BME280;44750;52.040;7.472;2023-08-12T13:21:06;100378.41;;;26.80;nan
58973;BME280;44750;52.040;7.472;2023-08-12T13:26:07;100262.41;;;26.98;nan
58973;BME280;44750;52.040;7.472;2023-08-12T13:31:07;100162.97;;;27.05;nan
58973;BME280;44750;52.040;7.472;2023-08-12T13:36:07;100048.00;;;26.85;nan
58973;BME280;44750;52.040;7.472;2023-08-12T13:41:07;99943.31;;;26.86;nan
58973;BME280;44750;52.040;7.472;2023-08-12T13:46:08;99876.19;;;26.48;nan
58973;BME280;44750;52.040;7.472;2023-08-12T13:51:08;99805.19;;;26.21;nan
58973;BME280;44750;52.040;7.472;2023-08-12T13:56:08;99786.03;;;25.37;nan
58973;BME280;44750;52.040;7.472;2023-08-12T14:01:09;99835.16;;;24.94;nan
58973;BME280;44750;52.040;7.472;2023-08-12T14:06:09;99901.97;;;25.13;nan
58973;BME280;44750;52.040;7.472;2023-08-12T14:11:09;99911.50;;;25.37;nan
58973;BME280;44750;52.040;7.472;2023-08-12T14:16:09;99840.28;;;25.28;nan
58973;BME280;44750;52.040;7.472;2023-08-12T14:21:09;99852.94;;;25.13;nan
58973;BME280;44750;52.040;7.472;2023-08-12T14:26:10;99842.38;;;25.00;nan
58973;BME280;44750;52.040;7.472;2023-08-12T14:31:10;99806.91;;;24.86;nan
58973;BME280;44750;52.040;7.472;2023-08-12T14:36:10;99785.84;;;24.85;nan
58973;BME280;44750;52.040;7.472;2023-08-12T14:41:10;99751.88;;;24.42;nan
58973;BME280;44750;52.040;7.472;2023-08-12T14:46:11;99820.88;;;24.21;nan
58973;BME280;44750;52.040;7.472;2023-08-12T14:51:11;99879.06;;;24.37;nan
58973;BME280;44750;52.040;7.472;2023-08-12T14:56:11;99812.69;;;24.37;nan
58973;BME280;44750;52.040;7.472;2023-08-12T15:01:11;99821.59;;;24.92;nan
58973;BME280;44750;52.040;7.472;2023-08-12T15:06:12;99797.13;;;25.58;nan
58973;BME280;44750;52.040;7.472;2023-08-12T15:11:12;99725.63;;;25.80;nan
58973;BME280;44750;52.040;7.472;2023-08-12T15:16:12;99625.91;;;25.13;nan
58973;BME280;44750;52.040;7.472;2023-08-12T15:21:12;99604.88;;;25.38;nan
58973;BME280;44750;52.040;7.472;2023-08-12T15:26:13;99578.81;;;25.13;nan
58973;BME280;44750;52.040;7.472;2023-08-12T15:31:13;99540.88;;;25.29;nan
58973;BME280;44750;52.040;7.472;2023-08-12T15:36:13;99501.56;;;25.22;nan
58973;BME280;44750;52.040;7.472;2023-08-12T15:41:14;99480.78;;;25.30;nan
58973;BME280;44750;52.040;7.472;2023-08-12T15:46:15;99374.72;;;25.24;nan
58973;BME280;44750;52.040;7.472;2023-08-12T15:51:16;99295.81;;;25.16;nan
58973;BME280;44750;52.040;7.472;2023-08-12T15:56:16;99246.50;;;25.24;nan
58973;BME280;44750;52.040;7.472;2023-08-12T16:01:17;99156.44;;;24.97;nan
58973;BME280;44750;52.040;7.472;2023-08-12T16:06:18;99133.69;;;25.05;nan
58973;BME280;44750;52.040;7.472;2023-08-12T16:11:18;99068.22;;;24.85;nan
58973;BME280;44750;52.040;7.472;2023-08-12T16:16:18;99079.50;;;24.94;nan
58973;BME280;44750;52.040;7.472;2023-08-12T16:21:19;99081.84;;;25.11;nan
58973;BME280;44750;52.040;7.472;2023-08-12T16:26:19;99059.53;;;25.02;nan
58973;BME280;44750;52.040;7.472;2023-08-12T16:31:19;99030.44;;;25.04;nan
58973;BME280;44750;52.040;7.472;2023-08-12T16:36:19;98978.78;;;24.90;nan
58973;BME280;44750;52.040;7.472;2023-08-12T16:41:19;98965.91;;;24.75;nan
58973;BME280;44750;52.040;7.472;2023-08-12T16:46:20;98991.00;;;24.49;nan
58973;BME280;44750;52.040;7.472;2023-08-12T16:51:20;98980.69;;;24.65;nan
58973;BME280;44750;52.040;7.472;2023-08-12T16:56:20;98926.25;;;24.84;nan
58973;BME280;44750;52.040;7.472;2023-08-12T17:01:21;98892.47;;;24.87;nan
58973;BME280;44750;52.040;7.472;2023-08-12T17:06:21;98809.22;;;24.84;nan
58973;BME280;44750;52.040;7.472;2023-08-12T17:11:21;98716.75;;;24.66;nan
58973;BME280;44750;52.040;7.472;2023-08-12T17:16:21;98696.78;;;24.69;nan
58973;BME280;44750;52.040;7.472;2023-08-12T17:21:22;98649.94;;;24.53;nan
58973;BME280;44750;52.040;7.472;2023-08-12T17:26:22;98654.28;;;24.60;nan
58973;BME280;44750;52.040;7.472;2023-08-12T17:31:22;98650.13;;;24.62;nan
58973;BME280;44750;52.040;7.472;2023-08-12T17:36:22;98662.13;;;24.52;nan
58973;BME280;44750;52.040;7.472;2023-08-12T17:41:23;98725.09;;;24.61;nan
58973;BME280;44750;52.040;7.472;2023-08-12T17:46:23;98733.81;;;24.73;nan
58973;BME280;44750;52.040;7.472;2023-08-12T17:51:23;98740.53;;;24.67;nan
58973;BME280;44750;52.040;7.472;2023-08-12T17:56:23;98742.47;;;24.66;nan
58973;BME280;44750;52.040;7.472;2023-08-12T18:01:24;98731.06;;;24.19;nan
58973;BME280;44750;52.040;7.472;2023-08-12T18:06:24;98821.78;;;24.12;nan
58973;BME280;44750;52.040;7.472;2023-08-12T18:11:24;98865.03;;;23.98;nan
58973;BME280;44750;52.040;7.472;2023-08-12T18:16:24;98902.41;;;23.80;nan
58973;BME280;44750;52.040;7.472;2023-08-12T18:21:25;98957.16;;;23.73;nan
58973;BME280;44750;52.040;7.472;2023-08-12T18:26:25;98908.09;;;23.49;nan
58973;BME280;44750;52.040;7.472;2023-08-12T18:31:25;98929.41;;;23.28;nan
58973;BME280;44750;52.040;7.472;2023-08-12T18:36:25;98935.53;;;23.14;nan
58973;BME280;44750;52.040;7.472;2023-08-12T18:41:26;98925.56;;;23.08;nan
58973;BME280;44750;52.040;7.472;2023-08-12T18:46:26;98934.69;;;23.03;nan
58973;BME280;44750;52.040;7.472;2023-08-12T18:51:26;98920.34;;;22.91;nan
58973;BME280;44750;52.040;7.472;2023-08-12T18:56:26;98961.50;;;22.82;nan
58973;BME280;44750;52.040;7.472;2023-08-12T19:01:27;98931.72;;;22.74;nan
58973;BME280;44750;52.040;7.472;2023-08-12T19:06:29;98942.19;;;22.77;nan
58973;BME280;44750;52.040;7.472;2023-08-12T19:11:29;98983.84;;;22.81;nan
58973;BME280;44750;52.040;7.472;2023-08-12T19:16:30;98998.16;;;22.78;nan
58973;BME280;44750;52.040;7.472;2023-08-12T19:21:30;98981.34;;;22.64;nan
58973;BME280;44750;52.040;7.472;2023-08-12T19:26:31;99037.56;;;22.52;nan
58973;BME280;44750;52.040;7.472;2023-08-12T19:31:32;99077.00;;;22.48;nan
58973;BME280;44750;52.040;7.472;2023-08-12T19:36:32;99135.94;;;22.36;nan
58973;BME280;44750;52.040;7.472;2023-08-12T19:41:32;99186.34;;;22.27;nan
58973;BME280;44750;52.040;7.472;2023-08-12T19:46:32;99245.03;;;22.22;nan
58973;BME280;44750;52.040;7.472;2023-08-12T19:51:33;99295.41;;;22.17;nan
58973;BME280;44750;52.040;7.472;2023-08-12T19:56:33;99301.06;;;21.95;nan
58973;BME280;44750;52.040;7.472;2023-08-12T20:01:34;99374.25;;;21.86;nan
58973;BME280;44750;52.040;7.472;2023-08-12T20:06:34;99446.00;;;21.74;nan
58973;BME280;44750;52.040;7.472;2023-08-12T20:11:34;99517.88;;;21.73;nan
58973;BME280;44750;52.040;7.472;2023-08-12T20:16:34;99600.25;;;21.74;nan
58973;BME280;44750;52.040;7.472;2023-08-12T20:21:37;99637.69;;;21.75;nan
58973;BME280;44750;52.040;7.472;2023-08-12T20:26:38;99683.94;;;21.73;nan
58973;BME280;44750;52.040;7.472;2023-08-12T20:31:38;99714.69;;;21.65;nan
58973;BME280;44750;52.040;7.472;2023-08-12T20:36:38;99741.28;;;21.59;nan
58973;BME280;44750;52.040;7.472;2023-08-12T20:41:38;99780.31;;;21.56;nan
58973;BME280;44750;52.040;7.472;2023-08-12T20:46:38;99839.56;;;21.59;nan
58973;BME280;44750;52.040;7.472;2023-08-12T20:51:39;99861.50;;;21.53;nan
58973;BME280;44750;52.040;7.472;2023-08-12T20:56:39;99892.41;;;21.56;nan
58973;BME280;44750;52.040;7.472;2023-08-12T21:01:40;99867.44;;;21.33;nan
58973;BME280;44750;52.040;7.472;2023-08-12T21:06:40;99932.84;;;21.43;nan
58973;BME280;44750;52.040;7.472;2023-08-12T21:11:40;99925.97;;;21.29;nan
58973;BME280;44750;52.040;7.472;2023-08-12T21:16:40;99988.31;;;21.35;nan
58973;BME280;44750;52.040;7.472;2023-08-12T21:21:41;99984.84;;;21.28;nan
58973;BME280;44750;52.040;7.472;2023-08-12T21:26:41;100001.88;;;21.25;nan
58973;BME280;44750;52.040;7.472;2023-08-12T21:31:43;100011.69;;;21.09;nan
58973;BME280;44750;52.040;7.472;2023-08-12T21:36:43;100054.97;;;21.01;nan
58973;BME280;44750;52.040;7.472;2023-08-12T21:41:43;100068.38;;;20.98;nan
58973;BME280;44750;52.040;7.472;2023-08-12T21:46:44;100046.59;;;20.84;nan
58973;BME280;44750;52.040;7.472;2023-08-12T21:51:44;100076.47;;;20.69;nan
58973;BME280;44750;52.040;7.472;2023-08-12T21:56:44;100103.19;;;20.62;nan
58973;BME280;44750;52.040;7.472;2023-08-12T22:01:44;100113.22;;;20.56;nan
58973;BME280;44750;52.040;7.472;2023-08-12T22:06:45;100109.31;;;20.33;nan
58973;BME280;44750;52.040;7.472;2023-08-12T22:11:45;100146.81;;;20.28;nan
58973;BME280;44750;52.040;7.472;2023-08-12T22:16:45;100143.75;;;20.17;nan
58973;BME280;44750;52.040;7.472;2023-08-12T22:21:45;100136.06;;;20.08;nan
58973;BME280;44750;52.040;7.472;2023-08-12T22:26:46;100161.94;;;20.00;nan
58973;BME280;44750;52.040;7.472;2023-08-12T22:31:46;100192.38;;;19.98;nan
58973;BME280;44750;52.040;7.472;2023-08-12T22:36:46;100180.25;;;19.87;nan
58973;BME280;44750;52.040;7.472;2023-08-12T22:41:47;100193.34;;;19.85;nan
58973;BME280;44750;52.040;7.472;2023-08-12T22:46:47;100210.06;;;19.84;nan
58973;BME280;44750;52.040;7.472;2023-08-12T22:51:47;100224.31;;;19.74;nan
58973;BME280;44750;52.040;7.472;2023-08-12T22:56:47;100262.56;;;19.69;nan
58973;BME280;44750;52.040;7.472;2023-08-12T23:01:48;100266.22;;;19.63;nan
58973;BME280;44750;52.040;7.472;2023-08-12T23:06:48;100284.88;;;19.54;nan
58973;BME280;44750;52.040;7.472;2023-08-12T23:11:48;100286.69;;;19.35;nan
58973;BME280;44750;52.040;7.472;2023-08-12T23:16:48;100315.41;;;19.32;nan
58973;BME280;44750;52.040;7.472;2023-08-12T23:21:49;100351.03;;;19.39;nan
58973;BME280;44750;52.040;7.472;2023-08-12T23:26:49;100358.28;;;19.27;nan
58973;BME280;44750;52.040;7.472;2023-08-12T23:31:49;100366.56;;;19.20;nan
58973;BME280;44750;52.040;7.472;2023-08-12T23:36:49;100385.56;;;19.15;nan
58973;BME280;44750;52.040;7.472;2023-08-12T23:41:50;100407.09;;;19.11;nan
58973;BME280;44750;52.040;7.472;2023-08-12T23:46:50;100423.44;;;18.99;nan
58973;BME280;44750;52.040;7.472;2023-08-12T23:51:50;100436.06;;;18.94;nan
58973;BME280;44750;52.040;7.472;2023-08-12T23:56:50;100460.16;;;18.92;nan
